createdAt,value
2018-12-29T00:00:02.779Z,32.00
2018-12-29T00:01:02.919Z,31.80
2018-12-29T00:02:03.068Z,32.80
2018-12-29T00:03:03.208Z,35.00
2018-12-29T00:04:03.354Z,29.10
2018-12-29T00:05:03.493Z,28.40
2018-12-29T00:06:03.640Z,30.30
2018-12-29T00:07:03.783Z,29.00
2018-12-29T00:08:03.926Z,30.60
2018-12-29T00:09:04.069Z,30.00
2018-12-29T00:10:04.211Z,26.20
2018-12-29T00:11:04.350Z,30.30
2018-12-29T00:12:04.494Z,30.00
2018-12-29T00:13:04.640Z,31.10
2018-12-29T00:14:04.782Z,32.90
2018-12-29T00:15:04.923Z,31.00
2018-12-29T00:16:05.066Z,32.50
2018-12-29T00:17:05.209Z,28.40
2018-12-29T00:18:05.352Z,31.00
2018-12-29T00:19:05.495Z,29.90
2018-12-29T00:20:05.640Z,32.10
2018-12-29T00:21:05.783Z,32.70
2018-12-29T00:22:05.927Z,27.60
2018-12-29T00:23:06.077Z,32.00
2018-12-29T00:24:06.215Z,33.40
2018-12-29T00:25:06.359Z,33.80
2018-12-29T00:26:06.504Z,31.50
2018-12-29T00:27:06.649Z,31.40
2018-12-29T00:28:06.791Z,32.30
2018-12-29T00:29:06.933Z,29.10
2018-12-29T00:30:07.078Z,27.40
2018-12-29T00:31:07.219Z,26.50
2018-12-29T00:32:07.366Z,25.20
2018-12-29T00:33:07.509Z,25.30
2018-12-29T00:34:07.652Z,26.70
2018-12-29T00:35:07.795Z,25.00
2018-12-29T00:36:07.956Z,29.10
2018-12-29T00:37:08.084Z,28.10
2018-12-29T00:38:08.228Z,32.30
2018-12-29T00:39:08.371Z,28.00
2018-12-29T00:40:08.512Z,29.50
2018-12-29T00:41:08.655Z,26.50
2018-12-29T00:42:08.799Z,34.60
2018-12-29T00:43:08.942Z,25.50
2018-12-29T00:44:09.083Z,25.10
2018-12-29T00:45:09.224Z,25.60
2018-12-29T00:46:09.368Z,24.40
2018-12-29T00:47:09.510Z,26.70
2018-12-29T00:48:09.655Z,24.40
2018-12-29T00:49:09.797Z,28.20
2018-12-29T00:50:09.941Z,26.30
2018-12-29T00:51:10.085Z,25.40
2018-12-29T00:52:10.229Z,30.70
2018-12-29T00:53:10.372Z,27.70
2018-12-29T00:54:10.515Z,25.30
2018-12-29T00:55:10.661Z,27.60
2018-12-29T00:56:10.804Z,25.90
2018-12-29T00:57:10.948Z,27.50
2018-12-29T00:58:11.091Z,26.40
2018-12-29T00:59:11.231Z,25.40
2018-12-29T01:00:11.376Z,24.30
2018-12-29T01:01:11.519Z,20.90
2018-12-29T01:02:11.664Z,26.30
2018-12-29T01:03:11.806Z,24.30
2018-12-29T01:04:11.958Z,24.50
2018-12-29T01:05:12.096Z,28.50
2018-12-29T01:06:12.238Z,24.10
2018-12-29T01:07:12.383Z,24.60
2018-12-29T01:08:12.524Z,25.20
2018-12-29T01:09:12.667Z,28.30
2018-12-29T01:10:12.810Z,23.30
2018-12-29T01:11:12.951Z,27.30
2018-12-29T01:12:13.097Z,22.90
2018-12-29T01:13:13.239Z,24.40
2018-12-29T01:14:13.383Z,23.90
2018-12-29T01:15:13.529Z,23.30
2018-12-29T01:16:13.669Z,27.60
2018-12-29T01:17:13.812Z,24.40
2018-12-29T01:18:13.955Z,25.70
2018-12-29T01:19:14.100Z,27.20
2018-12-29T01:20:14.243Z,25.20
2018-12-29T01:21:14.385Z,25.60
2018-12-29T01:22:14.528Z,24.70
2018-12-29T01:23:14.672Z,27.20
2018-12-29T01:24:14.817Z,26.20
2018-12-29T01:25:14.958Z,25.50
2018-12-29T01:26:15.102Z,29.10
2018-12-29T01:27:15.246Z,27.00
2018-12-29T01:28:15.389Z,23.70
2018-12-29T01:29:15.532Z,26.40
2018-12-29T01:30:15.677Z,25.60
2018-12-29T01:31:15.819Z,25.20
2018-12-29T01:32:15.962Z,23.00
2018-12-29T01:33:16.104Z,26.20
2018-12-29T01:34:16.250Z,25.90
2018-12-29T01:35:16.397Z,28.60
2018-12-29T01:36:16.542Z,28.30
2018-12-29T01:37:16.678Z,26.50
2018-12-29T01:38:16.820Z,23.70
2018-12-29T01:39:16.965Z,24.00
2018-12-29T01:40:17.109Z,26.20
2018-12-29T01:41:17.253Z,27.10
2018-12-29T01:42:17.397Z,28.90
2018-12-29T01:43:17.540Z,27.30
2018-12-29T01:44:17.683Z,26.40
2018-12-29T01:45:17.881Z,27.60
2018-12-29T01:46:17.968Z,26.90
2018-12-29T01:47:18.111Z,25.60
2018-12-29T01:48:18.254Z,23.90
2018-12-29T01:49:18.397Z,25.10
2018-12-29T01:50:18.543Z,23.70
2018-12-29T01:51:18.686Z,27.70
2018-12-29T01:52:18.827Z,24.70
2018-12-29T01:53:18.969Z,32.10
2018-12-29T01:54:19.113Z,28.00
2018-12-29T01:55:19.257Z,27.70
2018-12-29T01:56:19.397Z,29.00
2018-12-29T01:57:19.544Z,27.40
2018-12-29T01:58:19.685Z,27.00
2018-12-29T01:59:19.827Z,28.80
2018-12-29T02:00:19.970Z,26.00
2018-12-29T02:01:20.113Z,25.80
2018-12-29T02:02:20.257Z,25.20
2018-12-29T02:03:20.400Z,26.70
2018-12-29T02:04:20.543Z,27.20
2018-12-29T02:05:20.688Z,26.10
2018-12-29T02:06:20.838Z,26.50
2018-12-29T02:07:20.961Z,24.50
2018-12-29T02:08:21.122Z,28.70
2018-12-29T02:09:21.282Z,30.00
2018-12-29T02:10:21.440Z,27.10
2018-12-29T02:11:21.569Z,27.10
2018-12-29T02:12:21.714Z,25.80
2018-12-29T02:13:21.858Z,25.40
2018-12-29T02:14:22.002Z,25.10
2018-12-29T02:15:24.793Z,28.50
2018-12-29T02:16:22.285Z,26.70
2018-12-29T02:17:22.433Z,29.90
2018-12-29T02:18:22.578Z,23.30
2018-12-29T02:19:22.719Z,26.00
2018-12-29T02:20:22.862Z,29.70
2018-12-29T02:21:23.006Z,26.80
2018-12-29T02:22:23.148Z,28.70
2018-12-29T02:23:23.293Z,27.70
2018-12-29T02:24:23.435Z,27.80
2018-12-29T02:25:23.576Z,28.00
2018-12-29T02:26:23.720Z,29.70
2018-12-29T02:27:23.862Z,24.70
2018-12-29T02:28:24.006Z,22.00
2018-12-29T02:29:24.153Z,26.20
2018-12-29T02:30:24.293Z,27.10
2018-12-29T02:31:24.438Z,26.50
2018-12-29T02:32:24.577Z,24.80
2018-12-29T02:33:24.723Z,30.90
2018-12-29T02:34:24.864Z,25.30
2018-12-29T02:35:25.016Z,28.30
2018-12-29T02:36:25.157Z,28.00
2018-12-29T02:37:25.296Z,24.90
2018-12-29T02:38:25.439Z,25.60
2018-12-29T02:39:25.583Z,22.20
2018-12-29T02:40:25.723Z,25.30
2018-12-29T02:41:25.868Z,24.80
2018-12-29T02:42:26.010Z,27.00
2018-12-29T02:43:26.155Z,28.20
2018-12-29T02:44:26.300Z,26.30
2018-12-29T02:45:33.064Z,28.10
2018-12-29T02:46:26.584Z,28.50
2018-12-29T02:47:26.728Z,23.20
2018-12-29T02:48:26.873Z,26.40
2018-12-29T02:49:27.017Z,28.30
2018-12-29T02:50:27.183Z,28.30
2018-12-29T02:51:27.310Z,25.30
2018-12-29T02:52:27.450Z,26.10
2018-12-29T02:53:27.597Z,25.90
2018-12-29T02:54:27.745Z,23.20
2018-12-29T02:55:27.884Z,24.20
2018-12-29T02:56:28.027Z,23.10
2018-12-29T02:57:28.166Z,22.20
2018-12-29T02:58:28.314Z,24.20
2018-12-29T02:59:28.454Z,23.60
2018-12-29T03:00:28.599Z,24.90
2018-12-29T03:01:28.742Z,23.40
2018-12-29T03:02:28.886Z,22.40
2018-12-29T03:03:29.025Z,26.50
2018-12-29T03:04:29.168Z,26.20
2018-12-29T03:05:29.310Z,21.90
2018-12-29T03:06:29.463Z,22.50
2018-12-29T03:07:29.593Z,24.70
2018-12-29T03:08:29.739Z,24.70
2018-12-29T03:09:29.881Z,29.00
2018-12-29T03:10:30.021Z,27.80
2018-12-29T03:11:30.164Z,25.70
2018-12-29T03:12:30.308Z,23.50
2018-12-29T03:13:30.452Z,26.70
2018-12-29T03:14:30.597Z,26.20
2018-12-29T03:15:30.740Z,25.00
2018-12-29T03:16:30.882Z,23.20
2018-12-29T03:17:31.027Z,24.90
2018-12-29T03:18:31.207Z,23.50
2018-12-29T03:19:31.312Z,25.50
2018-12-29T03:20:31.455Z,26.20
2018-12-29T03:21:31.597Z,24.00
2018-12-29T03:22:31.746Z,26.50
2018-12-29T03:23:31.886Z,23.40
2018-12-29T03:24:32.029Z,25.80
2018-12-29T03:25:32.172Z,23.50
2018-12-29T03:26:32.315Z,22.60
2018-12-29T03:27:32.457Z,27.10
2018-12-29T03:28:32.600Z,24.80
2018-12-29T03:29:32.744Z,24.10
2018-12-29T03:30:32.897Z,27.10
2018-12-29T03:31:33.034Z,28.70
2018-12-29T03:32:33.189Z,27.80
2018-12-29T03:33:33.322Z,24.70
2018-12-29T03:34:33.462Z,22.60
2018-12-29T03:35:33.657Z,27.10
2018-12-29T03:36:33.751Z,28.00
2018-12-29T03:37:33.892Z,26.50
2018-12-29T03:38:34.032Z,28.00
2018-12-29T03:39:34.178Z,25.40
2018-12-29T03:40:34.322Z,23.90
2018-12-29T03:41:34.464Z,25.10
2018-12-29T03:42:34.614Z,24.40
2018-12-29T03:43:34.746Z,27.70
2018-12-29T03:44:34.898Z,27.80
2018-12-29T03:45:35.035Z,27.20
2018-12-29T03:46:35.180Z,24.40
2018-12-29T03:47:35.324Z,27.40
2018-12-29T03:48:35.465Z,26.40
2018-12-29T03:49:35.609Z,28.70
2018-12-29T03:50:35.757Z,25.70
2018-12-29T03:51:35.899Z,25.80
2018-12-29T03:52:36.039Z,25.40
2018-12-29T03:53:36.184Z,25.30
2018-12-29T03:54:36.329Z,27.20
2018-12-29T03:55:36.471Z,27.40
2018-12-29T03:56:36.671Z,26.70
2018-12-29T03:57:36.755Z,25.60
2018-12-29T03:58:36.900Z,25.60
2018-12-29T03:59:37.046Z,26.90
2018-12-29T04:00:37.187Z,24.60
2018-12-29T04:01:37.333Z,25.30
2018-12-29T04:02:37.479Z,27.40
2018-12-29T04:03:37.619Z,27.60
2018-12-29T04:04:37.762Z,27.40
2018-12-29T04:05:37.904Z,25.30
2018-12-29T04:06:38.045Z,29.60
2018-12-29T04:07:38.190Z,28.10
2018-12-29T04:08:38.335Z,27.10
2018-12-29T04:09:38.477Z,29.40
2018-12-29T04:10:38.619Z,25.70
2018-12-29T04:11:38.763Z,23.90
2018-12-29T04:12:38.908Z,24.70
2018-12-29T04:13:39.060Z,25.10
2018-12-29T04:14:39.194Z,24.20
2018-12-29T04:15:39.339Z,27.00
2018-12-29T04:16:39.481Z,26.90
2018-12-29T04:17:39.625Z,28.20
2018-12-29T04:18:39.769Z,23.80
2018-12-29T04:19:39.915Z,25.70
2018-12-29T04:20:40.058Z,26.60
2018-12-29T04:21:40.200Z,28.40
2018-12-29T04:22:40.346Z,26.50
2018-12-29T04:23:40.488Z,25.60
2018-12-29T04:24:40.628Z,27.70
2018-12-29T04:25:40.783Z,27.20
2018-12-29T04:26:40.926Z,24.20
2018-12-29T04:27:41.069Z,25.10
2018-12-29T04:28:41.212Z,30.10
2018-12-29T04:29:41.355Z,28.20
2018-12-29T04:30:41.498Z,26.80
2018-12-29T04:31:41.642Z,24.80
2018-12-29T04:32:41.785Z,26.00
2018-12-29T04:33:41.926Z,25.60
2018-12-29T04:34:42.069Z,29.60
2018-12-29T04:35:42.217Z,28.00
2018-12-29T04:36:42.385Z,27.90
2018-12-29T04:37:42.499Z,26.40
2018-12-29T04:38:42.642Z,24.50
2018-12-29T04:39:42.786Z,24.80
2018-12-29T04:40:42.929Z,25.40
2018-12-29T04:41:43.067Z,26.00
2018-12-29T04:42:43.213Z,25.60
2018-12-29T04:43:43.359Z,28.60
2018-12-29T04:44:43.501Z,29.10
2018-12-29T04:45:43.644Z,27.40
2018-12-29T04:46:43.790Z,25.40
2018-12-29T04:47:43.934Z,26.40
2018-12-29T04:48:44.076Z,28.90
2018-12-29T04:49:44.218Z,25.90
2018-12-29T04:50:44.361Z,26.20
2018-12-29T04:51:44.507Z,27.60
2018-12-29T04:52:44.648Z,25.10
2018-12-29T04:53:44.789Z,28.80
2018-12-29T04:54:44.933Z,26.30
2018-12-29T04:55:45.076Z,29.90
2018-12-29T04:56:45.218Z,28.30
2018-12-29T04:57:45.361Z,31.20
2018-12-29T04:58:45.502Z,27.10
2018-12-29T04:59:45.646Z,26.40
2018-12-29T05:00:45.788Z,27.80
2018-12-29T05:01:45.933Z,29.00
2018-12-29T05:02:46.072Z,28.10
2018-12-29T05:03:46.215Z,31.70
2018-12-29T05:04:46.358Z,27.90
2018-12-29T05:05:46.502Z,28.10
2018-12-29T05:06:46.648Z,25.70
2018-12-29T05:07:46.791Z,24.60
2018-12-29T05:08:46.935Z,27.70
2018-12-29T05:09:47.080Z,29.80
2018-12-29T05:10:47.220Z,28.50
2018-12-29T05:11:47.365Z,27.90
2018-12-29T05:12:47.508Z,31.30
2018-12-29T05:13:47.648Z,26.50
2018-12-29T05:14:47.794Z,28.80
2018-12-29T05:15:47.935Z,31.80
2018-12-29T05:16:48.081Z,26.30
2018-12-29T05:17:48.221Z,28.70
2018-12-29T05:18:48.365Z,25.50
2018-12-29T05:19:48.508Z,25.90
2018-12-29T05:20:48.651Z,29.90
2018-12-29T05:21:48.794Z,26.80
2018-12-29T05:22:48.936Z,29.80
2018-12-29T05:23:49.080Z,25.20
2018-12-29T05:24:49.226Z,31.60
2018-12-29T05:25:49.367Z,25.60
2018-12-29T05:26:49.514Z,24.50
2018-12-29T05:27:49.663Z,30.80
2018-12-29T05:28:49.802Z,27.80
2018-12-29T05:29:49.946Z,27.20
2018-12-29T05:30:50.090Z,26.80
2018-12-29T05:31:50.231Z,25.30
2018-12-29T05:32:50.376Z,26.10
2018-12-29T05:33:50.518Z,28.00
2018-12-29T05:34:50.661Z,26.50
2018-12-29T05:35:50.820Z,29.10
2018-12-29T05:36:50.980Z,28.60
2018-12-29T05:37:51.091Z,28.40
2018-12-29T05:38:51.234Z,29.70
2018-12-29T05:39:51.377Z,31.60
2018-12-29T05:40:51.524Z,28.30
2018-12-29T05:41:51.665Z,25.70
2018-12-29T05:42:51.809Z,27.00
2018-12-29T05:43:51.957Z,29.90
2018-12-29T05:44:52.090Z,26.90
2018-12-29T05:45:52.237Z,24.80
2018-12-29T05:46:52.380Z,27.00
2018-12-29T05:47:52.522Z,27.70
2018-12-29T05:48:52.667Z,28.50
2018-12-29T05:49:52.812Z,31.60
2018-12-29T05:50:52.955Z,31.10
2018-12-29T05:51:53.098Z,28.80
2018-12-29T05:52:53.245Z,27.90
2018-12-29T05:53:53.387Z,29.10
2018-12-29T05:54:53.530Z,26.60
2018-12-29T05:55:53.674Z,29.50
2018-12-29T05:56:53.818Z,27.40
2018-12-29T05:57:53.964Z,29.10
2018-12-29T05:58:54.106Z,26.10
2018-12-29T05:59:54.251Z,24.90
2018-12-29T06:00:54.393Z,28.60
2018-12-29T06:01:54.541Z,27.90
2018-12-29T06:02:54.682Z,26.00
2018-12-29T06:03:54.825Z,27.70
2018-12-29T06:04:54.972Z,27.40
2018-12-29T06:05:55.115Z,27.30
2018-12-29T06:06:55.259Z,27.70
2018-12-29T06:07:55.401Z,30.70
2018-12-29T06:08:55.544Z,31.60
2018-12-29T06:09:55.686Z,29.70
2018-12-29T06:10:55.829Z,27.20
2018-12-29T06:11:55.973Z,25.30
2018-12-29T06:12:56.117Z,27.80
2018-12-29T06:13:56.260Z,28.30
2018-12-29T06:14:56.402Z,28.40
2018-12-29T06:15:56.548Z,29.30
2018-12-29T06:16:56.691Z,29.50
2018-12-29T06:17:56.833Z,31.60
2018-12-29T06:18:56.978Z,26.70
2018-12-29T06:19:57.121Z,26.20
2018-12-29T06:20:57.264Z,26.40
2018-12-29T06:21:57.407Z,26.60
2018-12-29T06:22:57.553Z,24.70
2018-12-29T06:23:57.696Z,26.60
2018-12-29T06:24:57.837Z,27.20
2018-12-29T06:25:57.984Z,28.50
2018-12-29T06:26:58.128Z,29.80
2018-12-29T06:27:58.273Z,24.90
2018-12-29T06:28:58.480Z,25.70
2018-12-29T06:29:58.563Z,25.40
2018-12-29T06:30:58.709Z,30.60
2018-12-29T06:31:58.855Z,27.70
2018-12-29T06:32:58.997Z,27.90
2018-12-29T06:33:59.139Z,26.90
2018-12-29T06:34:59.283Z,27.80
2018-12-29T06:35:59.426Z,29.10
2018-12-29T06:36:59.572Z,30.10
2018-12-29T06:37:59.717Z,25.90
2018-12-29T06:38:59.859Z,28.20
2018-12-29T06:40:00.007Z,29.10
2018-12-29T06:41:00.149Z,25.90
2018-12-29T06:42:00.295Z,27.30
2018-12-29T06:43:00.438Z,25.60
2018-12-29T06:44:00.582Z,30.20
2018-12-29T06:45:00.728Z,25.80
2018-12-29T06:46:00.870Z,28.50
2018-12-29T06:47:01.016Z,29.30
2018-12-29T06:48:01.158Z,29.80
2018-12-29T06:49:01.300Z,29.10
2018-12-29T06:50:01.448Z,29.30
2018-12-29T06:51:01.592Z,23.90
2018-12-29T06:52:01.736Z,25.90
2018-12-29T06:53:01.878Z,26.90
2018-12-29T06:54:02.022Z,29.60
2018-12-29T06:55:02.166Z,25.60
2018-12-29T06:56:02.312Z,29.30
2018-12-29T06:57:02.455Z,28.10
2018-12-29T06:58:02.600Z,32.40
2018-12-29T06:59:02.747Z,27.30
2018-12-29T07:00:02.889Z,26.00
2018-12-29T07:01:03.039Z,28.50
2018-12-29T07:02:03.181Z,25.60
2018-12-29T07:03:03.325Z,28.90
2018-12-29T07:04:03.469Z,27.20
2018-12-29T07:05:03.613Z,27.20
2018-12-29T07:06:03.755Z,26.30
2018-12-29T07:07:03.905Z,24.90
2018-12-29T07:08:04.043Z,25.00
2018-12-29T07:09:04.188Z,30.00
2018-12-29T07:10:04.334Z,24.10
2018-12-29T07:11:04.478Z,28.10
2018-12-29T07:12:04.622Z,27.40
2018-12-29T07:13:04.767Z,30.40
2018-12-29T07:14:04.911Z,27.50
2018-12-29T07:15:05.056Z,27.10
2018-12-29T07:16:05.200Z,26.00
2018-12-29T07:17:05.343Z,23.70
2018-12-29T07:18:05.491Z,25.10
2018-12-29T07:19:05.629Z,25.80
2018-12-29T07:20:05.775Z,25.90
2018-12-29T07:21:05.929Z,26.30
2018-12-29T07:22:06.069Z,29.00
2018-12-29T07:23:06.211Z,25.90
2018-12-29T07:24:06.356Z,25.10
2018-12-29T07:25:06.499Z,26.30
2018-12-29T07:26:06.641Z,26.70
2018-12-29T07:27:06.785Z,25.10
2018-12-29T07:28:06.934Z,25.10
2018-12-29T07:29:07.073Z,23.70
2018-12-29T07:30:07.218Z,24.50
2018-12-29T07:31:07.360Z,25.00
2018-12-29T07:32:07.506Z,24.10
2018-12-29T07:33:07.651Z,26.60
2018-12-29T07:34:07.796Z,25.90
2018-12-29T07:35:07.938Z,29.70
2018-12-29T07:36:08.082Z,28.10
2018-12-29T07:37:08.226Z,31.30
2018-12-29T07:38:08.367Z,30.60
2018-12-29T07:39:08.513Z,31.00
2018-12-29T07:40:08.658Z,29.10
2018-12-29T07:41:08.801Z,25.10
2018-12-29T07:42:08.945Z,24.50
2018-12-29T07:43:09.091Z,22.00
2018-12-29T07:44:09.238Z,27.90
2018-12-29T07:45:09.381Z,25.70
2018-12-29T07:46:09.523Z,28.10
2018-12-29T07:47:09.666Z,25.90
2018-12-29T07:48:09.812Z,26.30
2018-12-29T07:49:09.954Z,25.00
2018-12-29T07:50:10.099Z,30.70
2018-12-29T07:51:10.243Z,23.90
2018-12-29T07:52:10.387Z,25.30
2018-12-29T07:53:10.531Z,25.20
2018-12-29T07:54:10.673Z,24.60
2018-12-29T07:55:10.820Z,24.70
2018-12-29T07:56:10.962Z,25.10
2018-12-29T07:57:11.105Z,26.30
2018-12-29T07:58:11.247Z,26.90
2018-12-29T07:59:11.396Z,26.50
2018-12-29T08:00:11.537Z,24.60
2018-12-29T08:01:11.682Z,25.50
2018-12-29T08:02:11.829Z,26.60
2018-12-29T08:03:11.967Z,26.50
2018-12-29T08:04:12.112Z,24.80
2018-12-29T08:05:12.254Z,26.10
2018-12-29T08:06:12.399Z,25.70
2018-12-29T08:07:12.542Z,27.10
2018-12-29T08:08:12.687Z,27.10
2018-12-29T08:09:12.831Z,23.40
2018-12-29T08:10:12.977Z,28.80
2018-12-29T08:11:13.125Z,24.10
2018-12-29T08:12:13.264Z,24.70
2018-12-29T08:13:13.412Z,25.00
2018-12-29T08:14:13.553Z,26.10
2018-12-29T08:15:13.699Z,23.00
2018-12-29T08:16:13.849Z,25.20
2018-12-29T08:17:13.988Z,26.50
2018-12-29T08:18:14.134Z,25.00
2018-12-29T08:19:14.276Z,23.60
2018-12-29T08:20:14.423Z,25.70
2018-12-29T08:21:14.566Z,29.50
2018-12-29T08:22:14.708Z,29.30
2018-12-29T08:23:14.855Z,29.90
2018-12-29T08:24:14.997Z,23.70
2018-12-29T08:25:15.207Z,25.20
2018-12-29T08:26:15.286Z,29.10
2018-12-29T08:27:15.431Z,33.20
2018-12-29T08:28:15.574Z,28.90
2018-12-29T08:29:15.721Z,24.80
2018-12-29T08:30:15.867Z,23.30
2018-12-29T08:31:16.009Z,23.50
2018-12-29T08:32:16.155Z,24.90
2018-12-29T08:33:16.299Z,23.00
2018-12-29T08:34:16.443Z,23.30
2018-12-29T08:35:16.588Z,28.20
2018-12-29T08:36:16.734Z,22.10
2018-12-29T08:37:16.879Z,23.80
2018-12-29T08:38:17.022Z,23.50
2018-12-29T08:39:17.166Z,24.50
2018-12-29T08:40:17.312Z,25.00
2018-12-29T08:41:17.855Z,27.40
2018-12-29T08:42:17.605Z,23.00
2018-12-29T08:43:17.751Z,23.30
2018-12-29T08:44:17.893Z,27.10
2018-12-29T08:45:18.037Z,29.60
2018-12-29T08:46:18.180Z,21.70
2018-12-29T08:47:18.325Z,24.20
2018-12-29T08:48:18.471Z,24.20
2018-12-29T08:49:18.615Z,21.30
2018-12-29T08:50:18.759Z,23.80
2018-12-29T08:51:18.903Z,22.30
2018-12-29T08:52:19.048Z,20.30
2018-12-29T08:53:19.195Z,22.60
2018-12-29T08:54:19.338Z,21.40
2018-12-29T08:55:19.485Z,23.50
2018-12-29T08:56:19.631Z,22.30
2018-12-29T08:57:19.773Z,21.70
2018-12-29T08:58:19.917Z,23.90
2018-12-29T08:59:20.063Z,22.50
2018-12-29T09:00:20.208Z,20.50
2018-12-29T09:01:20.353Z,19.10
2018-12-29T09:02:20.497Z,18.90
2018-12-29T09:03:20.640Z,21.50
2018-12-29T09:04:20.786Z,17.50
2018-12-29T09:05:20.942Z,24.00
2018-12-29T09:06:21.130Z,23.40
2018-12-29T09:07:21.227Z,20.50
2018-12-29T09:08:21.370Z,21.40
2018-12-29T09:09:21.515Z,22.50
2018-12-29T09:10:21.660Z,19.80
2018-12-29T09:11:21.805Z,22.60
2018-12-29T09:12:21.947Z,24.90
2018-12-29T09:13:22.093Z,21.20
2018-12-29T09:14:22.235Z,22.10
2018-12-29T09:15:22.382Z,20.50
2018-12-29T09:16:22.525Z,22.40
2018-12-29T09:17:22.676Z,21.40
2018-12-29T09:18:22.819Z,22.60
2018-12-29T09:19:27.156Z,25.40
2018-12-29T09:20:23.104Z,23.10
2018-12-29T09:21:23.252Z,23.70
2018-12-29T09:22:23.393Z,24.80
2018-12-29T09:23:23.540Z,22.70
2018-12-29T09:24:23.689Z,21.40
2018-12-29T09:25:23.829Z,22.40
2018-12-29T09:26:23.970Z,25.20
2018-12-29T09:27:24.118Z,21.70
2018-12-29T09:28:24.261Z,21.50
2018-12-29T09:29:24.405Z,21.50
2018-12-29T09:30:24.551Z,20.60
2018-12-29T09:31:24.695Z,21.80
2018-12-29T09:32:24.840Z,21.30
2018-12-29T09:33:24.983Z,19.50
2018-12-29T09:34:25.128Z,21.50
2018-12-29T09:35:25.271Z,18.50
2018-12-29T09:36:25.415Z,23.90
2018-12-29T09:37:25.562Z,21.00
2018-12-29T09:38:25.708Z,20.10
2018-12-29T09:39:25.854Z,20.50
2018-12-29T09:40:25.996Z,19.30
2018-12-29T09:41:26.143Z,22.10
2018-12-29T09:42:26.288Z,20.60
2018-12-29T09:43:26.432Z,22.90
2018-12-29T09:44:26.578Z,20.70
2018-12-29T09:45:26.724Z,22.50
2018-12-29T09:46:26.871Z,21.40
2018-12-29T09:47:27.013Z,20.30
2018-12-29T09:48:27.159Z,20.80
2018-12-29T09:49:27.309Z,20.80
2018-12-29T09:50:27.451Z,20.80
2018-12-29T09:51:27.596Z,19.90
2018-12-29T09:52:27.742Z,20.90
2018-12-29T09:53:27.886Z,20.20
2018-12-29T09:54:28.050Z,22.40
2018-12-29T09:55:28.182Z,21.20
2018-12-29T09:56:28.322Z,19.40
2018-12-29T09:57:28.468Z,19.80
2018-12-29T09:58:28.630Z,21.00
2018-12-29T09:59:28.775Z,18.50
2018-12-29T10:00:28.919Z,20.90
2018-12-29T10:01:29.066Z,20.00
2018-12-29T10:02:29.211Z,22.40
2018-12-29T10:03:29.356Z,21.70
2018-12-29T10:04:29.502Z,20.50
2018-12-29T10:05:29.650Z,22.70
2018-12-29T10:06:29.793Z,24.10
2018-12-29T10:07:29.939Z,20.70
2018-12-29T10:08:30.087Z,22.50
2018-12-29T10:09:30.232Z,19.80
2018-12-29T10:10:30.375Z,21.40
2018-12-29T10:11:30.520Z,19.50
2018-12-29T10:12:30.663Z,17.80
2018-12-29T10:13:30.808Z,20.90
2018-12-29T10:14:30.954Z,21.70
2018-12-29T10:15:31.097Z,22.80
2018-12-29T10:16:31.246Z,24.50
2018-12-29T10:17:31.393Z,19.80
2018-12-29T10:18:31.534Z,18.10
2018-12-29T10:19:31.679Z,20.60
2018-12-29T10:20:31.827Z,19.80
2018-12-29T10:21:31.971Z,20.30
2018-12-29T10:22:32.115Z,21.50
2018-12-29T10:23:32.260Z,21.10
2018-12-29T10:24:32.412Z,20.60
2018-12-29T10:25:32.558Z,19.60
2018-12-29T10:26:32.703Z,19.00
2018-12-29T10:27:32.849Z,20.20
2018-12-29T10:28:32.993Z,17.90
2018-12-29T10:29:33.138Z,19.60
2018-12-29T10:30:33.282Z,17.70
2018-12-29T10:31:33.429Z,19.50
2018-12-29T10:32:33.573Z,19.50
2018-12-29T10:33:33.718Z,19.60
2018-12-29T10:34:33.871Z,19.70
2018-12-29T10:35:34.010Z,20.90
2018-12-29T10:36:34.155Z,18.80
2018-12-29T10:37:34.301Z,16.90
2018-12-29T10:38:34.450Z,20.50
2018-12-29T10:39:34.598Z,19.10
2018-12-29T10:40:34.742Z,18.00
2018-12-29T10:41:34.888Z,19.70
2018-12-29T10:42:35.032Z,16.50
2018-12-29T10:43:35.179Z,18.30
2018-12-29T10:44:35.324Z,18.70
2018-12-29T10:45:35.467Z,15.90
2018-12-29T10:46:35.617Z,17.10
2018-12-29T10:47:35.761Z,19.90
2018-12-29T10:48:35.905Z,18.80
2018-12-29T10:49:36.053Z,18.60
2018-12-29T10:50:36.197Z,20.60
2018-12-29T10:51:36.344Z,18.70
2018-12-29T10:52:36.489Z,19.80
2018-12-29T10:53:36.633Z,19.10
2018-12-29T10:54:36.778Z,20.60
2018-12-29T10:55:36.925Z,18.70
2018-12-29T10:56:37.070Z,18.80
2018-12-29T10:57:37.219Z,18.00
2018-12-29T10:58:37.366Z,19.00
2018-12-29T10:59:37.509Z,20.10
2018-12-29T11:00:37.652Z,16.50
2018-12-29T11:01:37.795Z,17.00
2018-12-29T11:02:37.944Z,18.20
2018-12-29T11:03:38.085Z,20.80
2018-12-29T11:04:38.237Z,18.30
2018-12-29T11:05:38.373Z,17.30
2018-12-29T11:06:38.517Z,19.90
2018-12-29T11:07:38.661Z,19.70
2018-12-29T11:08:38.804Z,18.30
2018-12-29T11:09:38.953Z,18.60
2018-12-29T11:10:39.097Z,19.20
2018-12-29T11:11:39.242Z,22.00
2018-12-29T11:12:39.388Z,17.00
2018-12-29T11:13:39.531Z,18.10
2018-12-29T11:14:39.674Z,17.90
2018-12-29T11:15:39.823Z,21.70
2018-12-29T11:16:39.964Z,17.60
2018-12-29T11:17:42.426Z,19.80
2018-12-29T11:18:40.258Z,18.40
2018-12-29T11:19:40.405Z,18.50
2018-12-29T11:20:40.550Z,19.10
2018-12-29T11:21:40.695Z,19.20
2018-12-29T11:22:40.839Z,17.40
2018-12-29T11:23:40.984Z,17.00
2018-12-29T11:24:41.134Z,17.20
2018-12-29T11:25:41.278Z,17.80
2018-12-29T11:26:41.430Z,18.30
2018-12-29T11:27:41.577Z,17.90
2018-12-29T11:28:41.720Z,20.30
2018-12-29T11:29:41.866Z,18.70
2018-12-29T11:30:42.012Z,18.10
2018-12-29T11:31:42.157Z,19.80
2018-12-29T11:32:42.302Z,19.80
2018-12-29T11:33:42.449Z,19.90
2018-12-29T11:34:42.593Z,16.00
2018-12-29T11:35:42.737Z,20.70
2018-12-29T11:36:42.885Z,19.90
2018-12-29T11:37:44.116Z,18.80
2018-12-29T11:38:43.177Z,17.90
2018-12-29T11:39:43.322Z,17.90
2018-12-29T11:40:43.466Z,18.80
2018-12-29T11:41:43.613Z,21.80
2018-12-29T11:42:43.759Z,18.50
2018-12-29T11:43:43.906Z,21.10
2018-12-29T11:44:44.050Z,20.10
2018-12-29T11:45:44.194Z,18.40
2018-12-29T11:46:44.341Z,19.70
2018-12-29T11:47:49.814Z,17.00
2018-12-29T11:48:44.634Z,20.90
2018-12-29T11:49:44.779Z,18.20
2018-12-29T11:50:44.926Z,19.60
2018-12-29T11:51:45.072Z,19.80
2018-12-29T11:52:45.215Z,19.70
2018-12-29T11:53:45.358Z,18.10
2018-12-29T11:54:45.504Z,23.30
2018-12-29T11:55:45.652Z,21.00
2018-12-29T11:56:45.793Z,19.00
2018-12-29T11:57:45.938Z,19.70
2018-12-29T11:58:46.086Z,18.90
2018-12-29T11:59:46.230Z,21.30
2018-12-29T12:00:46.372Z,21.00
2018-12-29T12:01:46.518Z,18.80
2018-12-29T12:02:46.662Z,21.90
2018-12-29T12:03:46.808Z,20.80
2018-12-29T12:04:46.956Z,22.60
2018-12-29T12:05:47.108Z,18.50
2018-12-29T12:06:47.262Z,22.50
2018-12-29T12:07:47.418Z,18.50
2018-12-29T12:08:47.576Z,21.70
2018-12-29T12:09:47.722Z,20.50
2018-12-29T12:10:47.865Z,22.50
2018-12-29T12:11:48.014Z,21.10
2018-12-29T12:12:48.164Z,18.80
2018-12-29T12:13:48.299Z,17.70
2018-12-29T12:14:48.444Z,19.20
2018-12-29T12:15:48.589Z,17.90
2018-12-29T12:16:48.733Z,17.80
2018-12-29T12:17:48.878Z,17.60
2018-12-29T12:18:49.022Z,19.00
2018-12-29T12:19:49.167Z,22.90
2018-12-29T12:20:49.316Z,18.00
2018-12-29T12:21:49.456Z,21.60
2018-12-29T12:22:49.601Z,20.90
2018-12-29T12:23:49.747Z,18.00
2018-12-29T12:24:49.893Z,18.20
2018-12-29T12:25:50.040Z,19.30
2018-12-29T12:26:50.184Z,17.90
2018-12-29T12:27:50.330Z,19.30
2018-12-29T12:28:50.473Z,18.60
2018-12-29T12:29:50.619Z,20.40
2018-12-29T12:30:50.778Z,19.90
2018-12-29T12:31:50.935Z,21.50
2018-12-29T12:32:51.080Z,18.50
2018-12-29T12:33:51.256Z,19.20
2018-12-29T12:34:51.376Z,20.30
2018-12-29T12:35:51.510Z,18.30
2018-12-29T12:36:51.656Z,18.10
2018-12-29T12:37:51.800Z,18.10
2018-12-29T12:38:51.952Z,18.80
2018-12-29T12:39:52.091Z,18.60
2018-12-29T12:40:52.234Z,19.80
2018-12-29T12:41:52.379Z,18.40
2018-12-29T12:42:52.525Z,17.80
2018-12-29T12:43:52.669Z,20.20
2018-12-29T12:44:52.817Z,17.60
2018-12-29T12:45:52.960Z,16.60
2018-12-29T12:46:53.108Z,17.20
2018-12-29T12:47:53.255Z,20.80
2018-12-29T12:48:53.402Z,18.70
2018-12-29T12:49:53.545Z,18.80
2018-12-29T12:50:53.690Z,17.80
2018-12-29T12:51:53.837Z,16.80
2018-12-29T12:52:53.983Z,22.40
2018-12-29T12:53:54.129Z,19.70